Time;durP1;ratioP1;P1;durP2;ratioP2;P2;SDS_P1;SDS_P2;PMS_P1;PMS_P2;Temp;Humidity;BMP_temperature;BMP_pressure;BME280_temperature;BME280_humidity;BME280_pressure;Samples;Min_cycle;Max_cycle;Signal;HPM_P1;HPM_P2
2022/11/07 00:00:07;;;;;;;1.27;1.17;;;;;;;;;;4907116;29;20314;-60
2022/11/07 00:02:34;;;;;;;1.10;1.03;;;;;;;;;;4908966;29;20224;-60
2022/11/07 00:05:02;;;;;;;1.00;1.00;;;;;;;;;;4904632;29;20208;-60
2022/11/07 00:07:29;;;;;;;1.63;0.90;;;;;;;;;;4910261;29;20208;-60
2022/11/07 00:09:56;;;;;;;1.30;1.20;;;;;;;;;;4907327;29;20204;-60
2022/11/07 00:12:23;;;;;;;1.53;1.03;;;;;;;;;;4908011;29;20212;-60
2022/11/07 00:14:52;;;;;;;1.37;1.30;;;;;;;;;;4908383;29;20235;-60
2022/11/07 00:17:19;;;;;;;1.80;0.90;;;;;;;;;;4909043;29;20243;-60
2022/11/07 00:19:48;;;;;;;1.33;0.83;;;;;;;;;;4909015;29;20235;-59
2022/11/07 00:22:15;;;;;;;2.73;1.00;;;;;;;;;;4914447;29;20801;-60
2022/11/07 00:24:42;;;;;;;1.00;1.00;;;;;;;;;;4913347;29;20212;-59
2022/11/07 00:27:09;;;;;;;1.00;1.00;;;;;;;;;;4911834;29;20528;-60
2022/11/07 00:29:36;;;;;;;0.57;0.57;;;;;;;;;;4908799;29;20209;-61
2022/11/07 00:32:04;;;;;;;0.70;0.70;;;;;;;;;;4913427;29;20197;-60
2022/11/07 00:34:34;;;;;;;3.60;1.07;;;;;;;;;;4902179;29;20201;-59
2022/11/07 00:37:11;;;;;;;0.80;0.80;;;;;;;;;;4915311;29;20216;-59
2022/11/07 00:39:38;;;;;;;0.90;0.90;;;;;;;;;;4914951;29;20212;-60
2022/11/07 00:42:05;;;;;;;0.90;0.80;;;;;;;;;;4914777;29;20227;-60
2022/11/07 00:44:32;;;;;;;1.00;0.93;;;;;;;;;;4910041;29;20213;-61
2022/11/07 00:46:59;;;;;;;1.10;1.10;;;;;;;;;;4906281;29;20196;-60
2022/11/07 00:49:28;;;;;;;0.90;0.90;;;;;;;;;;4915164;29;20212;-61
2022/11/07 00:51:55;;;;;;;1.07;0.90;;;;;;;;;;4914372;29;20205;-60
2022/11/07 00:54:22;;;;;;;4.27;0.97;;;;;;;;;;4915105;29;20235;-60
2022/11/07 00:56:49;;;;;;;0.80;0.80;;;;;;;;;;4914654;29;20718;-61
2022/11/07 00:59:16;;;;;;;0.87;0.87;;;;;;;;;;4913430;29;20312;-60
2022/11/07 01:01:43;;;;;;;0.70;0.70;;;;;;;;;;4914516;29;20234;-60
2022/11/07 01:06:58;;;;;;;1.10;1.00;;;;;;;;;;4913457;29;20288;-60
2022/11/07 01:09:25;;;;;;;1.13;1.07;;;;;;;;;;4913894;29;20213;-60
2022/11/07 01:11:52;;;;;;;1.30;1.30;;;;;;;;;;4914048;29;20216;-60
2022/11/07 01:14:20;;;;;;;2.00;0.70;;;;;;;;;;4912837;29;20201;-60
2022/11/07 01:16:48;;;;;;;0.90;0.90;;;;;;;;;;4912147;29;20216;-60
2022/11/07 01:19:15;;;;;;;1.10;1.10;;;;;;;;;;4910524;29;20213;-60
2022/11/07 01:21:42;;;;;;;1.03;0.90;;;;;;;;;;4911425;29;20261;-60
2022/11/07 01:24:12;;;;;;;1.00;1.00;;;;;;;;;;4912426;29;20220;-60
2022/11/07 01:26:40;;;;;;;0.80;0.80;;;;;;;;;;4912725;29;20200;-61
2022/11/07 01:29:08;;;;;;;1.07;0.87;;;;;;;;;;4910692;29;20209;-60
2022/11/07 01:31:35;;;;;;;1.13;0.80;;;;;;;;;;4912734;29;20231;-61
2022/11/07 01:34:02;;;;;;;1.53;1.20;;;;;;;;;;4913148;29;20204;-59
2022/11/07 01:36:30;;;;;;;1.20;1.20;;;;;;;;;;4912989;29;20214;-59
2022/11/07 01:38:58;;;;;;;1.00;0.90;;;;;;;;;;4911787;29;20672;-60
2022/11/07 01:41:28;;;;;;;1.53;1.17;;;;;;;;;;4912651;29;20229;-60
2022/11/07 01:43:57;;;;;;;2.73;0.90;;;;;;;;;;4912720;29;20213;-59
2022/11/07 01:46:25;;;;;;;1.03;1.03;;;;;;;;;;4913883;29;20208;-59
2022/11/07 01:48:54;;;;;;;1.03;1.03;;;;;;;;;;4914288;29;20223;-59
2022/11/07 01:51:23;;;;;;;0.70;0.70;;;;;;;;;;4912865;29;20204;-59
2022/11/07 01:53:50;;;;;;;1.50;1.40;;;;;;;;;;4909536;29;20239;-59
2022/11/07 01:56:18;;;;;;;1.30;1.20;;;;;;;;;;4911424;29;20247;-59
2022/11/07 01:58:47;;;;;;;1.37;1.37;;;;;;;;;;4911340;29;20240;-59
2022/11/07 02:01:15;;;;;;;0.90;0.90;;;;;;;;;;4909790;29;20232;-59
2022/11/07 02:03:42;;;;;;;1.17;1.17;;;;;;;;;;4911437;29;20208;-59
2022/11/07 02:06:10;;;;;;;1.07;1.07;;;;;;;;;;4911322;29;20219;-59
2022/11/07 02:08:39;;;;;;;1.00;1.00;;;;;;;;;;4911879;29;20208;-59
2022/11/07 02:11:08;;;;;;;1.37;1.20;;;;;;;;;;4911970;29;20675;-59
2022/11/07 02:13:35;;;;;;;1.10;1.10;;;;;;;;;;4909672;29;20525;-59
2022/11/07 02:16:04;;;;;;;1.10;1.00;;;;;;;;;;4912175;29;20751;-62
2022/11/07 02:18:33;;;;;;;1.40;1.37;;;;;;;;;;4911061;29;20220;-59
2022/11/07 02:21:11;;;;;;;1.40;1.30;;;;;;;;;;4911617;29;20213;-59
2022/11/07 02:23:41;;;;;;;1.57;1.47;;;;;;;;;;4908373;29;20221;-58
2022/11/07 02:26:10;;;;;;;1.43;1.20;;;;;;;;;;4911092;29;20208;-59
2022/11/07 02:28:38;;;;;;;1.60;1.40;;;;;;;;;;4910450;29;20212;-59
2022/11/07 02:31:05;;;;;;;1.63;1.30;;;;;;;;;;4910014;29;20603;-59
2022/11/07 02:33:32;;;;;;;1.70;1.60;;;;;;;;;;4908452;29;20200;-59
2022/11/07 02:36:01;;;;;;;1.67;1.10;;;;;;;;;;4911830;29;20578;-60
2022/11/07 02:38:31;;;;;;;1.63;1.43;;;;;;;;;;4908445;29;20224;-59
2022/11/07 02:41:00;;;;;;;1.57;1.43;;;;;;;;;;4911102;29;20691;-60
2022/11/07 02:43:30;;;;;;;1.67;1.30;;;;;;;;;;4911288;29;20331;-59
2022/11/07 02:45:58;;;;;;;1.37;1.27;;;;;;;;;;4909206;29;20220;-59
2022/11/07 02:48:28;;;;;;;1.17;1.17;;;;;;;;;;4910032;29;20219;-59
2022/11/07 02:50:56;;;;;;;1.20;1.20;;;;;;;;;;4909835;29;20212;-59
2022/11/07 02:53:23;;;;;;;3.13;1.10;;;;;;;;;;4909490;29;20236;-59
2022/11/07 02:55:50;;;;;;;1.17;1.17;;;;;;;;;;4903428;29;20236;-59
2022/11/07 02:58:17;;;;;;;1.10;1.10;;;;;;;;;;4912159;29;20752;-59
2022/11/07 03:00:46;;;;;;;1.57;1.20;;;;;;;;;;4912735;29;20204;-58
2022/11/07 03:03:13;;;;;;;1.20;1.20;;;;;;;;;;4912246;29;20236;-58
2022/11/07 03:05:40;;;;;;;1.13;1.10;;;;;;;;;;4908539;29;20213;-58
2022/11/07 03:08:07;;;;;;;1.27;1.20;;;;;;;;;;4908192;29;20209;-59
2022/11/07 03:10:34;;;;;;;1.17;1.17;;;;;;;;;;4911268;29;20766;-59
2022/11/07 03:13:01;;;;;;;1.33;1.23;;;;;;;;;;4911055;29;20228;-58
2022/11/07 03:15:29;;;;;;;1.27;1.27;;;;;;;;;;4910411;29;20208;-58
2022/11/07 03:17:58;;;;;;;1.30;1.20;;;;;;;;;;4910541;29;20691;-59
2022/11/07 03:20:25;;;;;;;1.13;1.10;;;;;;;;;;4910869;29;20223;-59
2022/11/07 03:22:52;;;;;;;1.30;1.23;;;;;;;;;;4910195;29;20236;-59
2022/11/07 03:25:20;;;;;;;1.07;1.07;;;;;;;;;;4911587;29;20686;-59
2022/11/07 03:27:47;;;;;;;1.40;1.40;;;;;;;;;;4909685;29;20209;-59
2022/11/07 03:30:14;;;;;;;1.10;1.10;;;;;;;;;;4911077;29;20690;-59
2022/11/07 03:32:41;;;;;;;0.83;0.83;;;;;;;;;;4909660;29;20315;-59
2022/11/07 03:35:10;;;;;;;2.40;1.10;;;;;;;;;;4910183;29;20219;-60
2022/11/07 03:37:37;;;;;;;1.20;1.20;;;;;;;;;;4909180;29;20208;-59
2022/11/07 03:40:05;;;;;;;1.13;1.13;;;;;;;;;;4910970;29;20719;-60
2022/11/07 03:42:32;;;;;;;1.20;1.10;;;;;;;;;;4909613;29;20229;-59
2022/11/07 03:44:59;;;;;;;1.10;1.00;;;;;;;;;;4911714;29;20675;-59
2022/11/07 03:47:26;;;;;;;1.27;1.00;;;;;;;;;;4908979;29;20599;-59
2022/11/07 03:49:53;;;;;;;2.30;0.87;;;;;;;;;;4911408;29;20219;-59
2022/11/07 03:52:21;;;;;;;2.43;1.00;;;;;;;;;;4911258;29;20212;-59
2022/11/07 03:54:48;;;;;;;1.30;1.20;;;;;;;;;;4910839;29;20228;-59
2022/11/07 03:57:15;;;;;;;1.40;1.30;;;;;;;;;;4909153;29;20284;-59
2022/11/07 03:59:43;;;;;;;1.00;1.00;;;;;;;;;;4908088;29;20727;-59
2022/11/07 04:02:10;;;;;;;2.30;1.30;;;;;;;;;;4910836;29;20246;-60
2022/11/07 04:04:38;;;;;;;1.80;1.10;;;;;;;;;;4911556;29;20209;-58
2022/11/07 04:07:05;;;;;;;1.77;1.17;;;;;;;;;;4910092;29;20212;-59
2022/11/07 04:09:33;;;;;;;3.53;1.30;;;;;;;;;;4911005;29;20212;-61
2022/11/07 04:17:30;;;;;;;3.90;1.33;;;;;;;;;;4911014;29;20338;-60
2022/11/07 04:19:58;;;;;;;1.70;0.83;;;;;;;;;;4908842;29;20209;-59
2022/11/07 04:22:26;;;;;;;2.17;1.40;;;;;;;;;;4911343;29;20232;-60
2022/11/07 04:24:54;;;;;;;0.87;0.87;;;;;;;;;;4910555;29;20277;-59
2022/11/07 04:30:18;;;;;;;1.93;1.23;;;;;;;;;;4907549;29;20295;-59
2022/11/07 04:32:45;;;;;;;6.93;1.33;;;;;;;;;;4911122;29;20211;-59
2022/11/07 04:35:13;;;;;;;3.90;0.73;;;;;;;;;;4910622;29;20208;-59
2022/11/07 04:37:40;;;;;;;4.00;1.10;;;;;;;;;;4905845;29;20594;-59
2022/11/07 04:40:09;;;;;;;1.60;1.50;;;;;;;;;;4908320;29;20680;-60
2022/11/07 04:42:36;;;;;;;1.07;1.07;;;;;;;;;;4908431;29;20233;-58
2022/11/07 04:45:03;;;;;;;1.10;1.00;;;;;;;;;;4908496;29;20209;-59
2022/11/07 04:47:30;;;;;;;1.10;1.10;;;;;;;;;;4910340;29;20208;-59
2022/11/07 04:49:58;;;;;;;0.90;0.90;;;;;;;;;;4910381;29;20209;-59
2022/11/07 04:52:25;;;;;;;1.10;1.10;;;;;;;;;;4910399;29;20682;-59
2022/11/07 04:54:52;;;;;;;1.00;0.83;;;;;;;;;;4907822;29;20228;-59
2022/11/07 04:57:20;;;;;;;3.57;1.50;;;;;;;;;;4913965;29;20208;-59
2022/11/07 04:59:47;;;;;;;1.00;1.00;;;;;;;;;;4910973;29;20212;-59
2022/11/07 05:02:14;;;;;;;8.57;1.20;;;;;;;;;;4909789;29;20236;-59
2022/11/07 05:04:42;;;;;;;1.37;1.00;;;;;;;;;;4914414;29;20611;-59
2022/11/07 05:07:09;;;;;;;1.13;0.70;;;;;;;;;;4913816;29;20218;-59
2022/11/07 05:09:36;;;;;;;1.03;1.00;;;;;;;;;;4912462;29;20219;-59
2022/11/07 05:12:04;;;;;;;1.30;1.20;;;;;;;;;;4913141;29;20219;-59
2022/11/07 05:14:34;;;;;;;3.67;0.93;;;;;;;;;;4909730;29;20220;-59
2022/11/07 05:17:01;;;;;;;0.97;0.97;;;;;;;;;;4914517;29;20243;-59
2022/11/07 05:19:29;;;;;;;1.00;1.00;;;;;;;;;;4913001;29;20219;-59
2022/11/07 05:24:37;;;;;;;2.83;0.97;;;;;;;;;;4913753;29;20597;-59
2022/11/07 05:27:04;;;;;;;1.13;0.90;;;;;;;;;;4911235;29;20213;-59
2022/11/07 05:29:32;;;;;;;0.87;0.87;;;;;;;;;;4911254;29;20212;-59
2022/11/07 05:31:59;;;;;;;2.73;0.83;;;;;;;;;;4913141;29;20290;-59
2022/11/07 05:34:26;;;;;;;0.57;0.57;;;;;;;;;;4913044;29;20231;-59
2022/11/07 05:36:54;;;;;;;0.60;0.60;;;;;;;;;;4913241;29;20573;-59
2022/11/07 05:39:22;;;;;;;0.53;0.53;;;;;;;;;;4913715;29;20598;-59
2022/11/07 05:41:49;;;;;;;0.60;0.60;;;;;;;;;;4913540;29;20299;-62
2022/11/07 05:44:16;;;;;;;0.87;0.87;;;;;;;;;;4909658;29;20223;-61
2022/11/07 05:46:47;;;;;;;1.60;1.00;;;;;;;;;;4912711;29;20212;-59
2022/11/07 05:49:14;;;;;;;0.90;0.63;;;;;;;;;;4912318;29;20663;-59
2022/11/07 05:51:42;;;;;;;1.17;1.07;;;;;;;;;;4913046;29;20200;-58
2022/11/07 05:54:09;;;;;;;3.93;1.00;;;;;;;;;;4912766;29;20307;-59
2022/11/07 05:56:37;;;;;;;0.73;0.73;;;;;;;;;;4910479;29;20209;-58
2022/11/07 05:59:04;;;;;;;1.90;0.80;;;;;;;;;;4907814;29;20666;-59
2022/11/07 06:01:32;;;;;;;4.37;1.00;;;;;;;;;;4909268;29;20298;-59
2022/11/07 06:04:00;;;;;;;1.50;1.00;;;;;;;;;;4905931;29;20231;-59
2022/11/07 06:06:27;;;;;;;3.23;0.87;;;;;;;;;;4906474;29;20688;-59
2022/11/07 06:08:54;;;;;;;1.80;0.90;;;;;;;;;;4907889;29;20200;-58
2022/11/07 06:11:21;;;;;;;1.00;1.00;;;;;;;;;;4910745;29;20227;-59
2022/11/07 06:13:48;;;;;;;0.90;0.90;;;;;;;;;;4907488;29;20219;-59
2022/11/07 06:16:16;;;;;;;0.87;0.73;;;;;;;;;;4903099;29;20209;-59
2022/11/07 06:18:43;;;;;;;0.97;0.90;;;;;;;;;;4913953;29;20596;-59
2022/11/07 06:21:12;;;;;;;0.83;0.83;;;;;;;;;;4914336;29;20208;-60
2022/11/07 06:23:39;;;;;;;1.17;0.90;;;;;;;;;;4912156;29;20224;-60
2022/11/07 06:26:06;;;;;;;1.07;0.80;;;;;;;;;;4910475;29;20583;-61
2022/11/07 06:28:34;;;;;;;2.67;1.07;;;;;;;;;;4913128;29;20216;-64
2022/11/07 06:31:01;;;;;;;1.13;1.07;;;;;;;;;;4907186;29;20227;-60
2022/11/07 06:33:28;;;;;;;2.37;0.70;;;;;;;;;;4904968;29;20208;-61
2022/11/07 06:35:55;;;;;;;1.33;1.03;;;;;;;;;;4902939;29;20224;-61
2022/11/07 06:38:33;;;;;;;3.07;0.80;;;;;;;;;;4910582;29;20216;-60
2022/11/07 06:41:05;;;;;;;1.27;0.87;;;;;;;;;;4910458;29;20212;-60
2022/11/07 06:43:33;;;;;;;0.93;0.90;;;;;;;;;;4911734;29;20238;-60
2022/11/07 06:46:02;;;;;;;2.03;0.70;;;;;;;;;;4912326;29;20232;-60
2022/11/07 06:48:29;;;;;;;3.07;1.10;;;;;;;;;;4899293;29;20307;-60
2022/11/07 06:50:57;;;;;;;1.00;1.00;;;;;;;;;;4912285;29;20212;-62
2022/11/07 06:53:25;;;;;;;1.40;0.70;;;;;;;;;;4911801;29;20208;-60
2022/11/07 06:55:52;;;;;;;1.63;1.37;;;;;;;;;;4910600;29;20251;-60
2022/11/07 06:58:20;;;;;;;2.07;0.70;;;;;;;;;;4912841;29;20256;-59
2022/11/07 07:00:47;;;;;;;0.70;0.70;;;;;;;;;;4914874;29;20704;-60
2022/11/07 07:03:14;;;;;;;1.07;0.90;;;;;;;;;;4912454;29;20254;-60
2022/11/07 07:05:41;;;;;;;3.70;0.80;;;;;;;;;;4912498;29;20212;-60
2022/11/07 07:08:08;;;;;;;1.30;0.90;;;;;;;;;;4912732;29;20292;-59
2022/11/07 07:10:38;;;;;;;2.87;0.90;;;;;;;;;;4912407;29;20696;-60
2022/11/07 07:13:05;;;;;;;2.43;0.93;;;;;;;;;;4912220;29;20216;-60
2022/11/07 07:15:33;;;;;;;0.60;0.60;;;;;;;;;;4912380;29;20671;-61
2022/11/07 07:18:00;;;;;;;2.00;1.00;;;;;;;;;;4912421;29;20212;-61
2022/11/07 07:20:28;;;;;;;2.03;0.80;;;;;;;;;;4912289;29;20224;-61
2022/11/07 07:22:55;;;;;;;0.50;0.50;;;;;;;;;;4912024;29;20244;-61
2022/11/07 07:25:24;;;;;;;1.00;0.90;;;;;;;;;;4912234;29;20228;-60
2022/11/07 07:27:52;;;;;;;1.90;0.83;;;;;;;;;;4913111;29;20651;-60
2022/11/07 07:30:19;;;;;;;4.20;0.73;;;;;;;;;;4913049;29;20220;-60
2022/11/07 07:32:46;;;;;;;2.37;0.77;;;;;;;;;;4912607;29;20694;-60
2022/11/07 07:35:13;;;;;;;0.77;0.70;;;;;;;;;;4912721;29;20710;-60
2022/11/07 07:37:40;;;;;;;2.93;0.50;;;;;;;;;;4912505;29;20239;-60
2022/11/07 07:40:09;;;;;;;2.57;0.60;;;;;;;;;;4912785;29;20219;-60
2022/11/07 07:42:40;;;;;;;0.97;0.63;;;;;;;;;;4912522;29;20220;-61
2022/11/07 07:45:10;;;;;;;0.97;0.40;;;;;;;;;;4912856;29;20220;-60
2022/11/07 07:47:37;;;;;;;0.60;0.60;;;;;;;;;;4912608;29;20247;-61
2022/11/07 07:50:04;;;;;;;1.20;0.67;;;;;;;;;;4912543;29;20212;-60
2022/11/07 07:52:32;;;;;;;1.77;0.77;;;;;;;;;;4912266;29;20220;-60
2022/11/07 07:54:59;;;;;;;0.93;0.93;;;;;;;;;;4912464;29;20232;-61
2022/11/07 07:57:26;;;;;;;2.77;0.70;;;;;;;;;;4912195;29;20239;-60
2022/11/07 07:59:53;;;;;;;0.87;0.80;;;;;;;;;;4912426;29;20212;-60
2022/11/07 08:02:21;;;;;;;2.53;0.60;;;;;;;;;;4912318;29;20558;-60
2022/11/07 08:04:48;;;;;;;0.47;0.47;;;;;;;;;;4912029;29;20250;-61
2022/11/07 08:07:15;;;;;;;1.33;0.60;;;;;;;;;;4912203;29;20596;-61
2022/11/07 08:09:42;;;;;;;1.50;0.60;;;;;;;;;;4912132;29;20211;-61
2022/11/07 08:12:10;;;;;;;5.53;1.33;;;;;;;;;;4912321;29;20217;-60
2022/11/07 08:14:37;;;;;;;2.53;0.60;;;;;;;;;;4912262;29;20684;-60
2022/11/07 08:17:04;;;;;;;0.53;0.53;;;;;;;;;;4912275;29;20700;-61
2022/11/07 08:19:32;;;;;;;2.10;0.90;;;;;;;;;;4912305;29;20221;-61
2022/11/07 08:21:59;;;;;;;1.70;0.50;;;;;;;;;;4911877;29;20231;-63
2022/11/07 08:24:27;;;;;;;0.53;0.53;;;;;;;;;;4911779;29;20243;-74
2022/11/07 08:26:54;;;;;;;0.60;0.60;;;;;;;;;;4903870;29;20216;-65
2022/11/07 08:29:21;;;;;;;0.93;0.50;;;;;;;;;;4904566;29;20212;-61
2022/11/07 08:31:49;;;;;;;0.50;0.50;;;;;;;;;;4905480;29;20216;-62
2022/11/07 08:34:17;;;;;;;1.53;0.60;;;;;;;;;;4915722;29;20641;-61
2022/11/07 08:36:45;;;;;;;0.40;0.40;;;;;;;;;;4915659;29;20629;-61
2022/11/07 08:39:12;;;;;;;0.33;0.33;;;;;;;;;;4914941;29;20213;-61
2022/11/07 08:41:39;;;;;;;2.43;0.70;;;;;;;;;;4915840;29;20588;-60
2022/11/07 08:44:07;;;;;;;1.27;0.70;;;;;;;;;;4915493;29;20239;-61
2022/11/07 08:46:40;;;;;;;1.07;0.70;;;;;;;;;;4915670;29;20204;-62
2022/11/07 08:49:07;;;;;;;1.17;0.80;;;;;;;;;;4912600;29;20557;-61
2022/11/07 08:51:35;;;;;;;0.60;0.60;;;;;;;;;;4915093;29;20223;-60
2022/11/07 08:54:03;;;;;;;1.50;0.77;;;;;;;;;;4915253;29;20256;-61
2022/11/07 08:56:30;;;;;;;0.73;0.50;;;;;;;;;;4915254;29;20219;-61
2022/11/07 08:58:57;;;;;;;0.87;0.57;;;;;;;;;;4914905;29;20232;-60
2022/11/07 09:01:24;;;;;;;1.17;0.70;;;;;;;;;;4915124;29;21036;-61
2022/11/07 09:03:51;;;;;;;1.10;0.63;;;;;;;;;;4915016;29;20707;-61
2022/11/07 09:06:18;;;;;;;1.53;0.60;;;;;;;;;;4914910;29;20584;-60
2022/11/07 09:08:46;;;;;;;1.40;0.47;;;;;;;;;;4914875;29;20231;-60
2022/11/07 09:11:17;;;;;;;0.83;0.60;;;;;;;;;;4914989;29;20300;-60
2022/11/07 09:13:45;;;;;;;2.70;0.60;;;;;;;;;;4915085;29;20291;-60
2022/11/07 09:16:15;;;;;;;3.67;0.90;;;;;;;;;;4914898;29;20591;-61
2022/11/07 09:18:43;;;;;;;0.93;0.50;;;;;;;;;;4914897;29;20212;-60
2022/11/07 09:21:10;;;;;;;2.47;0.57;;;;;;;;;;4914611;29;20216;-61
2022/11/07 09:23:37;;;;;;;3.00;0.70;;;;;;;;;;4914615;29;20320;-60
2022/11/07 09:26:04;;;;;;;2.77;0.50;;;;;;;;;;4914478;29;20216;-60
2022/11/07 09:28:33;;;;;;;2.23;0.50;;;;;;;;;;4914448;29;20220;-61
2022/11/07 09:31:00;;;;;;;0.93;0.50;;;;;;;;;;4914462;29;20212;-60
2022/11/07 09:33:27;;;;;;;0.80;0.53;;;;;;;;;;4914464;29;20208;-60
2022/11/07 09:35:55;;;;;;;1.17;0.50;;;;;;;;;;4914370;29;20219;-61
2022/11/07 09:38:22;;;;;;;2.47;0.80;;;;;;;;;;4914453;29;20556;-60
2022/11/07 09:40:52;;;;;;;1.30;0.70;;;;;;;;;;4913033;29;20839;-61
2022/11/07 09:43:27;;;;;;;0.60;0.40;;;;;;;;;;4914265;29;20243;-61
2022/11/07 09:45:57;;;;;;;2.83;0.50;;;;;;;;;;4914532;29;20917;-60
2022/11/07 09:48:26;;;;;;;1.63;0.43;;;;;;;;;;4914317;29;20594;-62
2022/11/07 09:50:53;;;;;;;0.50;0.50;;;;;;;;;;4914340;29;20651;-60
2022/11/07 09:53:26;;;;;;;1.77;0.60;;;;;;;;;;4914049;29;20258;-61
2022/11/07 09:55:54;;;;;;;0.30;0.30;;;;;;;;;;4914027;29;20232;-60
2022/11/07 09:58:24;;;;;;;2.50;0.60;;;;;;;;;;4913758;29;20735;-61
2022/11/07 10:00:51;;;;;;;1.90;0.60;;;;;;;;;;4914028;29;20224;-61
2022/11/07 10:03:20;;;;;;;2.35;0.45;;;;;;;;;;4913942;29;20220;-61
2022/11/07 10:05:50;;;;;;;1.88;0.40;;;;;;;;;;4913667;29;20632;-61
2022/11/07 10:08:21;;;;;;;6.70;0.73;;;;;;;;;;4913639;29;20220;-61
2022/11/07 10:10:52;;;;;;;2.67;0.60;;;;;;;;;;4913759;29;20220;-60
2022/11/07 10:13:43;;;;;;;4.97;1.05;;;;;;;;;;4913690;29;20693;-61
2022/11/07 10:16:14;;;;;;;3.33;0.60;;;;;;;;;;4894957;29;20216;-61
2022/11/07 10:18:51;;;;;;;5.53;0.90;;;;;;;;;;4913832;29;20234;-61
2022/11/07 10:21:21;;;;;;;2.15;0.40;;;;;;;;;;4913463;29;20220;-61
2022/11/07 10:23:54;;;;;;;3.10;0.80;;;;;;;;;;4913511;29;20240;-61
2022/11/07 10:26:23;;;;;;;2.70;0.63;;;;;;;;;;4913462;29;20687;-61
2022/11/07 10:28:55;;;;;;;0.85;0.65;;;;;;;;;;4913389;29;20858;-61
2022/11/07 10:31:22;;;;;;;2.42;0.30;;;;;;;;;;4912974;29;20248;-61
2022/11/07 10:33:52;;;;;;;1.30;0.45;;;;;;;;;;4912763;29;20209;-60
2022/11/07 10:36:23;;;;;;;4.57;0.50;;;;;;;;;;4912391;29;20718;-61
2022/11/07 10:38:51;;;;;;;5.75;0.45;;;;;;;;;;4912598;29;20763;-61
2022/11/07 10:41:19;;;;;;;1.40;0.47;;;;;;;;;;4912227;29;20686;-61
2022/11/07 10:43:48;;;;;;;0.57;0.52;;;;;;;;;;4912481;29;20256;-61
2022/11/07 10:46:17;;;;;;;3.08;0.50;;;;;;;;;;4912564;29;20271;-61
2022/11/07 10:48:53;;;;;;;1.40;0.63;;;;;;;;;;4912542;29;20216;-60
2022/11/07 10:51:20;;;;;;;2.85;0.82;;;;;;;;;;4912160;29;20295;-61
2022/11/07 10:53:47;;;;;;;2.20;0.30;;;;;;;;;;4912009;29;20238;-62
2022/11/07 10:56:15;;;;;;;1.83;0.57;;;;;;;;;;4912377;29;20311;-61
2022/11/07 10:58:45;;;;;;;0.50;0.50;;;;;;;;;;4912281;29;20738;-61
2022/11/07 11:01:13;;;;;;;1.70;0.40;;;;;;;;;;4912504;29;20220;-61
2022/11/07 11:03:41;;;;;;;0.40;0.40;;;;;;;;;;4912271;29;20240;-61
2022/11/07 11:06:11;;;;;;;1.38;0.60;;;;;;;;;;4912103;29;20556;-61
2022/11/07 11:08:39;;;;;;;3.13;0.85;;;;;;;;;;4912185;29;20690;-61
2022/11/07 11:11:16;;;;;;;3.78;0.50;;;;;;;;;;4912263;29;20587;-61
2022/11/07 11:13:43;;;;;;;2.08;0.73;;;;;;;;;;4912064;29;20212;-62
2022/11/07 11:16:21;;;;;;;1.98;0.80;;;;;;;;;;4911972;29;20220;-61
2022/11/07 11:18:49;;;;;;;0.55;0.55;;;;;;;;;;4912193;29;20212;-61
2022/11/07 11:21:17;;;;;;;1.60;0.70;;;;;;;;;;4911902;29;20212;-61
2022/11/07 11:23:46;;;;;;;2.75;0.80;;;;;;;;;;4911937;29;20235;-61
2022/11/07 11:26:17;;;;;;;1.63;0.50;;;;;;;;;;4912480;29;20303;-61
2022/11/07 11:28:44;;;;;;;2.45;0.50;;;;;;;;;;4912672;29;20247;-61
2022/11/07 11:31:14;;;;;;;1.30;0.77;;;;;;;;;;4912358;29;20223;-62
2022/11/07 11:33:45;;;;;;;0.85;0.80;;;;;;;;;;4912556;29;20666;-61
2022/11/07 11:36:14;;;;;;;2.05;0.60;;;;;;;;;;4912635;29;20216;-62
2022/11/07 11:38:51;;;;;;;4.13;0.70;;;;;;;;;;4912258;29;20230;-62
2022/11/07 11:41:20;;;;;;;1.35;0.55;;;;;;;;;;4912405;29;20220;-62
2022/11/07 11:43:49;;;;;;;1.75;0.50;;;;;;;;;;4912186;29;20223;-61
2022/11/07 11:46:22;;;;;;;0.90;0.55;;;;;;;;;;4912374;29;20219;-62
2022/11/07 11:48:51;;;;;;;0.52;0.40;;;;;;;;;;4912183;29;20219;-61
2022/11/07 11:51:20;;;;;;;3.75;1.25;;;;;;;;;;4912185;29;20255;-61
2022/11/07 11:53:48;;;;;;;2.00;0.70;;;;;;;;;;4912026;29;20227;-62
2022/11/07 11:56:26;;;;;;;4.85;1.00;;;;;;;;;;4911918;29;20216;-61
2022/11/07 11:59:00;;;;;;;0.40;0.40;;;;;;;;;;4912020;29;20251;-62
2022/11/07 12:01:33;;;;;;;0.57;0.32;;;;;;;;;;4912273;29;20231;-61
2022/11/07 12:04:10;;;;;;;0.70;0.70;;;;;;;;;;4911331;29;20236;-62
2022/11/07 12:06:39;;;;;;;2.63;0.50;;;;;;;;;;4912161;29;20224;-61
2022/11/07 12:09:18;;;;;;;3.40;1.02;;;;;;;;;;4912109;29;20212;-62
2022/11/07 12:11:51;;;;;;;0.60;0.40;;;;;;;;;;4911980;29;20230;-61
2022/11/07 12:14:30;;;;;;;0.30;0.30;;;;;;;;;;4912014;29;20223;-62
2022/11/07 12:16:59;;;;;;;1.50;0.50;;;;;;;;;;4912160;29;20212;-61
2022/11/07 12:19:29;;;;;;;0.52;0.50;;;;;;;;;;4912084;29;20218;-61
2022/11/07 12:22:00;;;;;;;4.20;0.70;;;;;;;;;;4911965;29;20219;-61
2022/11/07 12:24:33;;;;;;;0.95;0.50;;;;;;;;;;4911877;29;20232;-61
2022/11/07 12:27:04;;;;;;;1.15;0.47;;;;;;;;;;4912136;29;20212;-61
2022/11/07 12:29:36;;;;;;;1.85;0.80;;;;;;;;;;4911992;29;20316;-61
2022/11/07 12:32:09;;;;;;;1.65;0.85;;;;;;;;;;4911915;29;20212;-62
2022/11/07 12:34:41;;;;;;;0.98;0.63;;;;;;;;;;4911809;29;20336;-61
2022/11/07 12:37:16;;;;;;;0.98;0.60;;;;;;;;;;4909549;29;20219;-62
2022/11/07 12:39:51;;;;;;;2.15;0.65;;;;;;;;;;4911783;29;20204;-62
2022/11/07 12:42:24;;;;;;;2.40;0.40;;;;;;;;;;4911892;29;20222;-62
2022/11/07 12:44:59;;;;;;;1.25;0.60;;;;;;;;;;4911270;29;20879;-64
2022/11/07 12:47:34;;;;;;;2.28;0.60;;;;;;;;;;4912291;29;20385;-61
2022/11/07 12:50:09;;;;;;;1.48;0.38;;;;;;;;;;4906021;29;20211;-63
2022/11/07 12:52:43;;;;;;;0.75;0.70;;;;;;;;;;4911979;29;20799;-61
2022/11/07 12:55:17;;;;;;;1.55;0.50;;;;;;;;;;4893105;29;20229;-61
2022/11/07 12:57:44;;;;;;;2.00;0.50;;;;;;;;;;4898188;29;20236;-61
2022/11/07 13:00:17;;;;;;;2.60;0.70;;;;;;;;;;4911474;29;20212;-61
2022/11/07 13:02:50;;;;;;;3.97;0.75;;;;;;;;;;4908933;29;20233;-60
2022/11/07 13:05:35;;;;;;;1.25;0.82;;;;;;;;;;4910195;29;20224;-60
2022/11/07 13:08:08;;;;;;;0.50;0.50;;;;;;;;;;4903314;29;20208;-60
2022/11/07 13:10:39;;;;;;;2.10;0.60;;;;;;;;;;4911427;29;20212;-60
2022/11/07 13:13:11;;;;;;;3.20;0.60;;;;;;;;;;4913202;29;20224;-60
2022/11/07 13:15:39;;;;;;;2.28;0.47;;;;;;;;;;4910534;29;20204;-61
2022/11/07 13:18:17;;;;;;;1.15;0.70;;;;;;;;;;4915094;29;20260;-60
2022/11/07 13:20:44;;;;;;;2.58;0.70;;;;;;;;;;4914979;29;20678;-60
2022/11/07 13:23:14;;;;;;;4.20;0.47;;;;;;;;;;4913931;29;20593;-62
2022/11/07 13:25:44;;;;;;;0.98;0.63;;;;;;;;;;4910829;29;20228;-62
2022/11/07 13:28:26;;;;;;;0.55;0.40;;;;;;;;;;4912961;29;20208;-62
2022/11/07 13:30:54;;;;;;;1.65;0.60;;;;;;;;;;4897322;29;20243;-61
2022/11/07 13:33:28;;;;;;;0.50;0.40;;;;;;;;;;4907494;29;20272;-60
2022/11/07 13:35:57;;;;;;;1.10;0.55;;;;;;;;;;4914677;29;20203;-61
2022/11/07 13:38:25;;;;;;;0.63;0.63;;;;;;;;;;4914402;29;20883;-61
2022/11/07 13:40:57;;;;;;;0.88;0.55;;;;;;;;;;4914428;29;20224;-61
2022/11/07 13:43:27;;;;;;;1.15;0.47;;;;;;;;;;4913925;29;20219;-61
2022/11/07 13:45:55;;;;;;;1.95;0.57;;;;;;;;;;4914122;29;20668;-61
2022/11/07 13:48:23;;;;;;;2.10;0.50;;;;;;;;;;4914420;29;20216;-61
2022/11/07 13:50:54;;;;;;;2.58;0.85;;;;;;;;;;4913843;29;20679;-63
2022/11/07 13:53:24;;;;;;;0.60;0.40;;;;;;;;;;4913086;29;20212;-61
2022/11/07 13:55:53;;;;;;;2.65;0.57;;;;;;;;;;4913846;29;20607;-60
2022/11/07 13:58:23;;;;;;;0.63;0.60;;;;;;;;;;4913646;29;20244;-61
2022/11/07 14:00:50;;;;;;;0.95;0.50;;;;;;;;;;4913633;29;20220;-61
2022/11/07 14:03:25;;;;;;;3.28;0.40;;;;;;;;;;4913240;29;20339;-60
2022/11/07 14:05:52;;;;;;;1.42;0.63;;;;;;;;;;4913223;29;20734;-60
2022/11/07 14:08:21;;;;;;;1.75;0.73;;;;;;;;;;4913229;29;20677;-60
2022/11/07 14:10:49;;;;;;;2.78;0.80;;;;;;;;;;4913702;29;20209;-60
2022/11/07 14:13:21;;;;;;;2.67;0.77;;;;;;;;;;4908233;29;20212;-60
2022/11/07 14:15:52;;;;;;;0.60;0.60;;;;;;;;;;4912528;29;20200;-59
2022/11/07 14:18:19;;;;;;;0.30;0.30;;;;;;;;;;4913313;29;20213;-61
2022/11/07 14:20:47;;;;;;;2.08;0.60;;;;;;;;;;4913652;29;20212;-60
2022/11/07 14:23:14;;;;;;;2.95;0.80;;;;;;;;;;4913365;29;20219;-60
2022/11/07 14:25:41;;;;;;;1.27;0.50;;;;;;;;;;4913205;29;20243;-60
2022/11/07 14:28:15;;;;;;;4.70;0.70;;;;;;;;;;4912274;29;20240;-60
2022/11/07 14:30:42;;;;;;;1.00;0.50;;;;;;;;;;4913193;29;20200;-60
2022/11/07 14:33:17;;;;;;;1.58;0.68;;;;;;;;;;4911470;29;20223;-61
2022/11/07 14:35:45;;;;;;;3.03;0.32;;;;;;;;;;4913179;29;20230;-60
2022/11/07 14:38:15;;;;;;;1.52;0.40;;;;;;;;;;4913342;29;20450;-61
2022/11/07 14:40:43;;;;;;;1.75;0.73;;;;;;;;;;4898437;29;20215;-60
2022/11/07 14:43:12;;;;;;;4.10;0.88;;;;;;;;;;4913377;29;20212;-61
2022/11/07 14:45:40;;;;;;;3.00;0.70;;;;;;;;;;4913230;29;20444;-60
2022/11/07 14:48:10;;;;;;;0.45;0.35;;;;;;;;;;4913257;29;20213;-60
2022/11/07 14:50:39;;;;;;;0.55;0.43;;;;;;;;;;4913093;29;20220;-60
2022/11/07 14:53:08;;;;;;;1.65;0.30;;;;;;;;;;4894059;29;20221;-60
2022/11/07 14:55:37;;;;;;;1.80;0.75;;;;;;;;;;4894057;29;20734;-60
2022/11/07 14:58:06;;;;;;;2.38;0.65;;;;;;;;;;4903489;29;20244;-61
2022/11/07 15:00:33;;;;;;;3.03;0.47;;;;;;;;;;4909684;29;20563;-61
2022/11/07 15:03:01;;;;;;;6.30;0.93;;;;;;;;;;4912761;29;20303;-61
2022/11/07 15:05:30;;;;;;;3.35;0.80;;;;;;;;;;4912711;29;20255;-61